sensor_id;sensor_type;location;lat;lon;timestamp;pressure;altitude;pressure_sealevel;temperature;humidity
27429;BME280;14881;48.092;11.574;2022-09-30T00:00:08;94529.41;;;7.18;100.00
27429;BME280;14881;48.092;11.574;2022-09-30T00:02:36;94530.75;;;7.21;100.00
27429;BME280;14881;48.092;11.574;2022-09-30T00:05:04;94530.22;;;7.19;100.00
27429;BME280;14881;48.092;11.574;2022-09-30T00:07:32;94530.69;;;7.26;100.00
27429;BME280;14881;48.092;11.574;2022-09-30T00:10:00;94533.38;;;7.26;100.00
27429;BME280;14881;48.092;11.574;2022-09-30T00:12:28;94541.66;;;7.29;100.00
27429;BME280;14881;48.092;11.574;2022-09-30T00:14:57;94533.50;;;7.34;100.00
27429;BME280;14881;48.092;11.574;2022-09-30T00:17:25;94545.13;;;7.35;100.00
27429;BME280;14881;48.092;11.574;2022-09-30T00:19:53;94542.41;;;7.35;100.00
27429;BME280;14881;48.092;11.574;2022-09-30T00:22:21;94545.91;;;7.36;100.00
27429;BME280;14881;48.092;11.574;2022-09-30T00:24:49;94544.66;;;7.28;100.00
27429;BME280;14881;48.092;11.574;2022-09-30T00:27:16;94539.06;;;7.24;100.00
27429;BME280;14881;48.092;11.574;2022-09-30T00:29:45;94537.16;;;7.25;100.00
27429;BME280;14881;48.092;11.574;2022-09-30T00:32:14;94541.38;;;7.31;100.00
27429;BME280;14881;48.092;11.574;2022-09-30T00:34:41;94540.81;;;7.34;100.00
27429;BME280;14881;48.092;11.574;2022-09-30T00:37:09;94539.72;;;7.35;100.00
27429;BME280;14881;48.092;11.574;2022-09-30T00:39:40;94535.75;;;7.27;100.00
27429;BME280;14881;48.092;11.574;2022-09-30T00:42:10;94537.38;;;7.28;100.00
27429;BME280;14881;48.092;11.574;2022-09-30T00:44:50;94538.78;;;7.26;100.00
27429;BME280;14881;48.092;11.574;2022-09-30T00:50:25;94529.94;;;7.20;100.00
27429;BME280;14881;48.092;11.574;2022-09-30T00:52:58;94528.31;;;7.19;100.00
27429;BME280;14881;48.092;11.574;2022-09-30T00:55:44;94536.44;;;7.19;100.00
27429;BME280;14881;48.092;11.574;2022-09-30T00:58:17;94540.00;;;7.15;100.00
27429;BME280;14881;48.092;11.574;2022-09-30T01:00:46;94538.69;;;7.12;100.00
27429;BME280;14881;48.092;11.574;2022-09-30T01:03:16;94548.38;;;7.13;100.00
27429;BME280;14881;48.092;11.574;2022-09-30T01:05:45;94557.06;;;7.10;100.00
27429;BME280;14881;48.092;11.574;2022-09-30T01:08:13;94563.44;;;7.19;100.00
27429;BME280;14881;48.092;11.574;2022-09-30T01:10:44;94561.03;;;7.18;100.00
27429;BME280;14881;48.092;11.574;2022-09-30T01:13:12;94558.63;;;7.16;100.00
27429;BME280;14881;48.092;11.574;2022-09-30T01:15:54;94560.28;;;7.12;100.00
27429;BME280;14881;48.092;11.574;2022-09-30T01:18:29;94550.00;;;7.14;100.00
27429;BME280;14881;48.092;11.574;2022-09-30T01:21:18;94556.13;;;7.20;100.00
27429;BME280;14881;48.092;11.574;2022-09-30T01:24:06;94564.53;;;7.18;100.00
27429;BME280;14881;48.092;11.574;2022-09-30T01:26:52;94560.50;;;7.16;100.00
27429;BME280;14881;48.092;11.574;2022-09-30T01:29:39;94556.50;;;7.13;100.00
27429;BME280;14881;48.092;11.574;2022-09-30T01:32:16;94566.94;;;7.20;100.00
27429;BME280;14881;48.092;11.574;2022-09-30T01:34:47;94575.78;;;7.25;100.00
27429;BME280;14881;48.092;11.574;2022-09-30T01:37:26;94578.19;;;7.27;100.00
27429;BME280;14881;48.092;11.574;2022-09-30T01:40:02;94580.97;;;7.22;100.00
27429;BME280;14881;48.092;11.574;2022-09-30T01:42:36;94593.16;;;7.19;100.00
27429;BME280;14881;48.092;11.574;2022-09-30T01:45:11;94589.13;;;7.17;100.00
27429;BME280;14881;48.092;11.574;2022-09-30T01:47:47;94593.72;;;7.16;100.00
27429;BME280;14881;48.092;11.574;2022-09-30T01:50:20;94591.31;;;7.15;100.00
27429;BME280;14881;48.092;11.574;2022-09-30T01:52:55;94593.44;;;7.18;100.00
27429;BME280;14881;48.092;11.574;2022-09-30T01:55:30;94582.34;;;7.19;100.00
27429;BME280;14881;48.092;11.574;2022-09-30T01:58:01;94583.38;;;7.23;100.00
27429;BME280;14881;48.092;11.574;2022-09-30T02:00:35;94578.91;;;7.32;100.00
27429;BME280;14881;48.092;11.574;2022-09-30T02:03:10;94584.31;;;7.32;100.00
27429;BME280;14881;48.092;11.574;2022-09-30T02:05:44;94587.81;;;7.33;100.00
27429;BME280;14881;48.092;11.574;2022-09-30T02:08:20;94588.69;;;7.28;100.00
27429;BME280;14881;48.092;11.574;2022-09-30T02:10:53;94588.50;;;7.25;100.00
27429;BME280;14881;48.092;11.574;2022-09-30T02:13:28;94595.28;;;7.22;100.00
27429;BME280;14881;48.092;11.574;2022-09-30T02:16:00;94587.16;;;7.22;100.00
27429;BME280;14881;48.092;11.574;2022-09-30T02:18:43;94583.44;;;7.18;100.00
27429;BME280;14881;48.092;11.574;2022-09-30T02:21:15;94585.63;;;7.16;100.00
27429;BME280;14881;48.092;11.574;2022-09-30T02:23:46;94577.81;;;7.15;100.00
27429;BME280;14881;48.092;11.574;2022-09-30T02:26:19;94571.81;;;7.18;100.00
27429;BME280;14881;48.092;11.574;2022-09-30T02:28:51;94573.28;;;7.10;100.00
27429;BME280;14881;48.092;11.574;2022-09-30T02:31:21;94585.25;;;7.04;100.00
27429;BME280;14881;48.092;11.574;2022-09-30T02:33:55;94586.97;;;6.95;100.00
27429;BME280;14881;48.092;11.574;2022-09-30T02:36:28;94586.25;;;6.89;100.00
27429;BME280;14881;48.092;11.574;2022-09-30T02:39:00;94580.38;;;6.82;100.00
27429;BME280;14881;48.092;11.574;2022-09-30T02:41:36;94582.84;;;6.79;100.00
27429;BME280;14881;48.092;11.574;2022-09-30T02:44:05;94579.63;;;6.77;100.00
27429;BME280;14881;48.092;11.574;2022-09-30T02:46:40;94578.16;;;6.66;100.00
27429;BME280;14881;48.092;11.574;2022-09-30T02:49:18;94588.00;;;6.56;100.00
27429;BME280;14881;48.092;11.574;2022-09-30T02:52:00;94584.22;;;6.57;100.00
27429;BME280;14881;48.092;11.574;2022-09-30T02:54:33;94591.53;;;6.52;100.00
27429;BME280;14881;48.092;11.574;2022-09-30T02:57:08;94601.28;;;6.48;100.00
27429;BME280;14881;48.092;11.574;2022-09-30T02:59:41;94596.75;;;6.43;100.00
27429;BME280;14881;48.092;11.574;2022-09-30T03:02:09;94610.03;;;6.40;100.00
27429;BME280;14881;48.092;11.574;2022-09-30T03:04:39;94608.31;;;6.49;100.00
27429;BME280;14881;48.092;11.574;2022-09-30T03:07:08;94613.66;;;6.54;100.00
27429;BME280;14881;48.092;11.574;2022-09-30T03:09:37;94623.56;;;6.58;100.00
27429;BME280;14881;48.092;11.574;2022-09-30T03:12:10;94633.88;;;6.56;100.00
27429;BME280;14881;48.092;11.574;2022-09-30T03:14:55;94630.41;;;6.51;100.00
27429;BME280;14881;48.092;11.574;2022-09-30T03:17:40;94626.13;;;6.45;100.00
27429;BME280;14881;48.092;11.574;2022-09-30T03:20:28;94619.50;;;6.37;100.00
27429;BME280;14881;48.092;11.574;2022-09-30T03:23:18;94628.16;;;6.34;100.00
27429;BME280;14881;48.092;11.574;2022-09-30T03:25:55;97007.59;;;6.34;100.00
27429;BME280;14881;48.092;11.574;2022-09-30T03:28:28;94621.94;;;6.34;100.00
27429;BME280;14881;48.092;11.574;2022-09-30T03:31:03;94631.38;;;6.36;100.00
27429;BME280;14881;48.092;11.574;2022-09-30T03:33:39;94635.84;;;-144.85;100.00
27429;BME280;14881;48.092;11.574;2022-09-30T03:36:14;94639.81;;;6.53;100.00
27429;BME280;14881;48.092;11.574;2022-09-30T03:38:48;94646.31;;;6.52;100.00
27429;BME280;14881;48.092;11.574;2022-09-30T03:41:23;94654.44;;;6.47;100.00
27429;BME280;14881;48.092;11.574;2022-09-30T03:43:55;94652.59;;;6.43;100.00
27429;BME280;14881;48.092;11.574;2022-09-30T03:46:27;94655.00;;;6.44;100.00
27429;BME280;14881;48.092;11.574;2022-09-30T03:48:59;94665.75;;;6.49;100.00
27429;BME280;14881;48.092;11.574;2022-09-30T03:51:30;94657.63;;;6.54;100.00
27429;BME280;14881;48.092;11.574;2022-09-30T03:53:59;94664.28;;;6.62;100.00
27429;BME280;14881;48.092;11.574;2022-09-30T03:56:28;94664.28;;;-144.85;100.00
27429;BME280;14881;48.092;11.574;2022-09-30T03:58:59;67524.59;;;21.25;100.00
27429;BME280;14881;48.092;11.574;2022-09-30T04:01:27;62988.50;;;-144.85;100.00
27429;BME280;14881;48.092;11.574;2022-09-30T04:03:54;62988.50;;;-144.85;100.00
27429;BME280;14881;48.092;11.574;2022-09-30T04:06:23;62988.50;;;-144.85;100.00
27429;BME280;14881;48.092;11.574;2022-09-30T04:08:52;62988.50;;;-144.85;100.00
27429;BME280;14881;48.092;11.574;2022-09-30T04:11:20;62988.50;;;-144.85;100.00
27429;BME280;14881;48.092;11.574;2022-09-30T04:13:48;62988.50;;;-144.85;100.00
27429;BME280;14881;48.092;11.574;2022-09-30T04:16:16;62988.50;;;-144.85;100.00
27429;BME280;14881;48.092;11.574;2022-09-30T04:18:44;62988.50;;;-144.85;100.00
27429;BME280;14881;48.092;11.574;2022-09-30T04:21:13;62988.50;;;-144.85;100.00
27429;BME280;14881;48.092;11.574;2022-09-30T04:23:41;62988.50;;;-144.85;100.00
27429;BME280;14881;48.092;11.574;2022-09-30T04:26:12;62988.50;;;-144.85;100.00
27429;BME280;14881;48.092;11.574;2022-09-30T04:28:41;62988.50;;;-144.85;100.00
27429;BME280;14881;48.092;11.574;2022-09-30T04:31:10;62988.50;;;-144.85;100.00
27429;BME280;14881;48.092;11.574;2022-09-30T04:33:39;62988.50;;;-144.85;100.00
27429;BME280;14881;48.092;11.574;2022-09-30T04:36:07;62988.50;;;-144.85;100.00
27429;BME280;14881;48.092;11.574;2022-09-30T04:38:35;62988.50;;;-144.85;100.00
27429;BME280;14881;48.092;11.574;2022-09-30T04:41:03;62988.50;;;-144.85;100.00
27429;BME280;14881;48.092;11.574;2022-09-30T04:43:33;62988.50;;;-144.85;100.00
27429;BME280;14881;48.092;11.574;2022-09-30T04:46:01;62988.50;;;-144.85;100.00
27429;BME280;14881;48.092;11.574;2022-09-30T04:48:29;62988.50;;;-144.85;100.00
27429;BME280;14881;48.092;11.574;2022-09-30T04:50:57;62988.50;;;-144.85;100.00
27429;BME280;14881;48.092;11.574;2022-09-30T04:53:26;62988.50;;;-144.85;100.00
27429;BME280;14881;48.092;11.574;2022-09-30T04:55:58;62988.50;;;-144.85;100.00
27429;BME280;14881;48.092;11.574;2022-09-30T04:58:26;62988.50;;;-144.85;100.00
27429;BME280;14881;48.092;11.574;2022-09-30T05:01:02;62988.50;;;-144.85;100.00
27429;BME280;14881;48.092;11.574;2022-09-30T05:03:30;62988.50;;;-144.85;100.00
27429;BME280;14881;48.092;11.574;2022-09-30T05:05:58;62988.50;;;-144.85;100.00
27429;BME280;14881;48.092;11.574;2022-09-30T05:08:26;62988.50;;;-144.85;100.00
27429;BME280;14881;48.092;11.574;2022-09-30T05:10:55;62988.50;;;-144.85;100.00
27429;BME280;14881;48.092;11.574;2022-09-30T05:13:24;62988.50;;;-144.85;100.00
27429;BME280;14881;48.092;11.574;2022-09-30T05:15:52;62988.50;;;-144.85;100.00
27429;BME280;14881;48.092;11.574;2022-09-30T05:18:21;62988.50;;;-144.85;100.00
27429;BME280;14881;48.092;11.574;2022-09-30T05:20:52;62988.50;;;-144.85;100.00
27429;BME280;14881;48.092;11.574;2022-09-30T05:23:20;62988.50;;;-144.85;100.00
27429;BME280;14881;48.092;11.574;2022-09-30T05:25:49;62988.50;;;-144.85;100.00
27429;BME280;14881;48.092;11.574;2022-09-30T05:28:17;62988.50;;;-144.85;100.00
27429;BME280;14881;48.092;11.574;2022-09-30T05:30:45;62988.50;;;-144.85;100.00
27429;BME280;14881;48.092;11.574;2022-09-30T05:33:15;62988.50;;;-144.85;100.00
27429;BME280;14881;48.092;11.574;2022-09-30T05:35:44;62988.50;;;-144.85;100.00
27429;BME280;14881;48.092;11.574;2022-09-30T05:38:13;62988.50;;;-144.85;100.00
27429;BME280;14881;48.092;11.574;2022-09-30T05:40:40;62988.50;;;-144.85;100.00
27429;BME280;14881;48.092;11.574;2022-09-30T05:43:08;62988.50;;;-144.85;100.00
27429;BME280;14881;48.092;11.574;2022-09-30T05:45:36;62988.50;;;-144.85;100.00
27429;BME280;14881;48.092;11.574;2022-09-30T05:48:04;62988.50;;;-144.85;100.00
27429;BME280;14881;48.092;11.574;2022-09-30T05:50:33;62988.50;;;-144.85;100.00
27429;BME280;14881;48.092;11.574;2022-09-30T05:53:02;62988.50;;;-144.85;100.00
27429;BME280;14881;48.092;11.574;2022-09-30T05:55:30;62988.50;;;-144.85;100.00
27429;BME280;14881;48.092;11.574;2022-09-30T05:58:04;62988.50;;;-144.85;100.00
27429;BME280;14881;48.092;11.574;2022-09-30T06:00:32;62988.50;;;-144.85;100.00
27429;BME280;14881;48.092;11.574;2022-09-30T06:03:00;62988.50;;;-144.85;100.00
27429;BME280;14881;48.092;11.574;2022-09-30T06:05:28;62988.50;;;-144.85;100.00
27429;BME280;14881;48.092;11.574;2022-09-30T06:07:55;62988.50;;;-144.85;100.00
27429;BME280;14881;48.092;11.574;2022-09-30T06:10:25;62988.50;;;-144.85;100.00
27429;BME280;14881;48.092;11.574;2022-09-30T06:12:52;62988.50;;;-144.85;100.00
27429;BME280;14881;48.092;11.574;2022-09-30T06:15:20;62988.50;;;-144.85;100.00
27429;BME280;14881;48.092;11.574;2022-09-30T06:17:51;62988.50;;;-144.85;100.00
27429;BME280;14881;48.092;11.574;2022-09-30T06:20:19;62988.50;;;-144.85;100.00
27429;BME280;14881;48.092;11.574;2022-09-30T06:22:47;62988.50;;;-144.85;100.00
27429;BME280;14881;48.092;11.574;2022-09-30T06:25:15;116854.53;;;-144.85;100.00
27429;BME280;14881;48.092;11.574;2022-09-30T06:27:44;94773.72;;;-98.16;100.00
27429;BME280;14881;48.092;11.574;2022-09-30T06:30:13;94775.25;;;8.03;100.00
27429;BME280;14881;48.092;11.574;2022-09-30T06:32:41;94779.56;;;8.04;100.00
27429;BME280;14881;48.092;11.574;2022-09-30T06:35:09;62988.50;;;-144.85;100.00
27429;BME280;14881;48.092;11.574;2022-09-30T06:37:37;-20708.69;;;-144.85;100.00
27429;BME280;14881;48.092;11.574;2022-09-30T06:40:08;94783.09;;;8.24;100.00
27429;BME280;14881;48.092;11.574;2022-09-30T06:42:36;94788.81;;;8.22;100.00
27429;BME280;14881;48.092;11.574;2022-09-30T06:45:06;94779.16;;;8.35;100.00
27429;BME280;14881;48.092;11.574;2022-09-30T06:47:38;94777.13;;;8.46;100.00
27429;BME280;14881;48.092;11.574;2022-09-30T06:50:16;94778.75;;;8.47;100.00
27429;BME280;14881;48.092;11.574;2022-09-30T06:52:51;94790.50;;;8.56;100.00
27429;BME280;14881;48.092;11.574;2022-09-30T06:55:23;94793.84;;;8.66;100.00
27429;BME280;14881;48.092;11.574;2022-09-30T06:57:52;94794.88;;;8.70;100.00
27429;BME280;14881;48.092;11.574;2022-09-30T07:00:22;94803.47;;;8.91;100.00
27429;BME280;14881;48.092;11.574;2022-09-30T07:02:50;62988.50;;;-144.85;100.00
27429;BME280;14881;48.092;11.574;2022-09-30T07:05:17;62988.50;;;-144.85;100.00
27429;BME280;14881;48.092;11.574;2022-09-30T07:07:45;62988.50;;;-144.85;100.00
27429;BME280;14881;48.092;11.574;2022-09-30T07:10:14;62988.50;;;-144.85;100.00
27429;BME280;14881;48.092;11.574;2022-09-30T07:12:42;62988.50;;;-144.85;100.00
27429;BME280;14881;48.092;11.574;2022-09-30T07:15:10;94815.25;;;9.47;100.00
27429;BME280;14881;48.092;11.574;2022-09-30T07:17:40;94816.84;;;9.48;100.00
27429;BME280;14881;48.092;11.574;2022-09-30T07:20:09;62988.50;;;-144.85;100.00
27429;BME280;14881;48.092;11.574;2022-09-30T07:22:37;78758.84;;;-144.85;100.00
27429;BME280;14881;48.092;11.574;2022-09-30T07:25:06;62988.50;;;-144.85;100.00
27429;BME280;14881;48.092;11.574;2022-09-30T07:27:35;62988.50;;;-144.85;100.00
27429;BME280;14881;48.092;11.574;2022-09-30T07:30:03;62988.50;;;-144.85;100.00
27429;BME280;14881;48.092;11.574;2022-09-30T07:32:43;94805.38;;;10.05;100.00
27429;BME280;14881;48.092;11.574;2022-09-30T07:35:10;94797.25;;;10.05;100.00
27429;BME280;14881;48.092;11.574;2022-09-30T07:37:39;68320.47;;;-144.85;100.00
27429;BME280;14881;48.092;11.574;2022-09-30T07:40:07;94791.63;;;10.29;100.00
27429;BME280;14881;48.092;11.574;2022-09-30T07:42:37;94793.72;;;10.32;100.00
27429;BME280;14881;48.092;11.574;2022-09-30T07:45:09;94796.09;;;10.48;100.00
27429;BME280;14881;48.092;11.574;2022-09-30T07:47:37;94791.63;;;10.65;100.00
27429;BME280;14881;48.092;11.574;2022-09-30T07:50:07;94792.84;;;10.59;100.00
27429;BME280;14881;48.092;11.574;2022-09-30T07:52:36;94796.78;;;10.53;100.00
27429;BME280;14881;48.092;11.574;2022-09-30T07:55:05;94802.78;;;10.64;100.00
27429;BME280;14881;48.092;11.574;2022-09-30T07:57:33;94811.19;;;10.54;100.00
27429;BME280;14881;48.092;11.574;2022-09-30T08:00:01;94811.19;;;10.54;100.00
27429;BME280;14881;48.092;11.574;2022-09-30T08:02:50;94819.97;;;10.73;100.00
27429;BME280;14881;48.092;11.574;2022-09-30T08:05:19;94818.22;;;10.77;100.00
27429;BME280;14881;48.092;11.574;2022-09-30T08:07:47;94824.03;;;10.84;100.00
27429;BME280;14881;48.092;11.574;2022-09-30T08:10:16;94825.59;;;10.99;100.00
27429;BME280;14881;48.092;11.574;2022-09-30T08:12:49;94830.13;;;11.03;100.00
27429;BME280;14881;48.092;11.574;2022-09-30T08:15:23;94822.72;;;11.26;100.00
27429;BME280;14881;48.092;11.574;2022-09-30T08:17:51;94807.88;;;11.24;100.00
27429;BME280;14881;48.092;11.574;2022-09-30T08:20:20;94802.22;;;11.42;100.00
27429;BME280;14881;48.092;11.574;2022-09-30T08:22:51;94811.16;;;11.43;100.00
27429;BME280;14881;48.092;11.574;2022-09-30T08:25:19;94816.81;;;11.24;100.00
27429;BME280;14881;48.092;11.574;2022-09-30T08:27:47;94812.53;;;11.32;100.00
27429;BME280;14881;48.092;11.574;2022-09-30T08:30:15;94821.63;;;11.27;100.00
27429;BME280;14881;48.092;11.574;2022-09-30T08:32:42;94815.63;;;11.39;100.00
27429;BME280;14881;48.092;11.574;2022-09-30T08:35:10;94830.25;;;11.82;100.00
27429;BME280;14881;48.092;11.574;2022-09-30T08:37:39;94821.34;;;11.99;100.00
27429;BME280;14881;48.092;11.574;2022-09-30T08:40:17;94826.97;;;11.94;100.00
27429;BME280;14881;48.092;11.574;2022-09-30T08:42:57;94829.47;;;11.82;100.00
27429;BME280;14881;48.092;11.574;2022-09-30T08:45:36;94840.66;;;11.80;100.00
27429;BME280;14881;48.092;11.574;2022-09-30T08:48:21;94840.16;;;11.78;100.00
27429;BME280;14881;48.092;11.574;2022-09-30T08:51:03;94835.41;;;11.84;100.00
27429;BME280;14881;48.092;11.574;2022-09-30T08:53:37;94848.81;;;12.11;100.00
27429;BME280;14881;48.092;11.574;2022-09-30T08:56:07;94850.25;;;12.09;100.00
27429;BME280;14881;48.092;11.574;2022-09-30T08:58:45;94849.69;;;11.98;100.00
27429;BME280;14881;48.092;11.574;2022-09-30T09:01:18;94850.59;;;11.76;100.00
27429;BME280;14881;48.092;11.574;2022-09-30T09:03:49;94854.94;;;11.64;100.00
27429;BME280;14881;48.092;11.574;2022-09-30T09:06:21;94864.53;;;11.61;100.00
27429;BME280;14881;48.092;11.574;2022-09-30T09:09:04;94865.81;;;11.86;100.00
27429;BME280;14881;48.092;11.574;2022-09-30T09:11:46;94863.63;;;11.97;100.00
27429;BME280;14881;48.092;11.574;2022-09-30T09:14:28;94872.47;;;12.02;100.00
27429;BME280;14881;48.092;11.574;2022-09-30T09:17:04;94875.69;;;12.04;100.00
27429;BME280;14881;48.092;11.574;2022-09-30T09:19:44;94875.38;;;12.06;100.00
27429;BME280;14881;48.092;11.574;2022-09-30T09:22:12;94879.81;;;11.93;100.00
27429;BME280;14881;48.092;11.574;2022-09-30T09:24:43;94892.72;;;11.65;100.00
27429;BME280;14881;48.092;11.574;2022-09-30T09:27:19;94889.59;;;11.49;100.00
27429;BME280;14881;48.092;11.574;2022-09-30T09:29:53;94886.56;;;11.73;100.00
27429;BME280;14881;48.092;11.574;2022-09-30T09:32:26;94893.66;;;11.83;100.00
27429;BME280;14881;48.092;11.574;2022-09-30T09:34:57;94892.38;;;12.11;100.00
27429;BME280;14881;48.092;11.574;2022-09-30T09:37:35;94887.69;;;12.03;100.00
27429;BME280;14881;48.092;11.574;2022-09-30T09:40:31;94887.66;;;11.95;100.00
27429;BME280;14881;48.092;11.574;2022-09-30T09:43:09;94883.72;;;12.09;100.00
27429;BME280;14881;48.092;11.574;2022-09-30T09:45:41;94881.78;;;12.10;100.00
27429;BME280;14881;48.092;11.574;2022-09-30T09:48:14;94892.84;;;12.13;100.00
27429;BME280;14881;48.092;11.574;2022-09-30T09:50:50;94892.53;;;12.15;100.00
27429;BME280;14881;48.092;11.574;2022-09-30T09:53:36;94887.50;;;12.00;100.00
27429;BME280;14881;48.092;11.574;2022-09-30T09:56:13;94884.44;;;11.93;100.00
27429;BME280;14881;48.092;11.574;2022-09-30T09:59:05;94875.75;;;12.22;100.00
27429;BME280;14881;48.092;11.574;2022-09-30T10:01:36;94874.22;;;12.55;100.00
27429;BME280;14881;48.092;11.574;2022-09-30T10:04:16;94869.47;;;12.78;100.00
27429;BME280;14881;48.092;11.574;2022-09-30T10:06:50;94873.50;;;13.06;100.00
27429;BME280;14881;48.092;11.574;2022-09-30T10:09:33;94870.63;;;13.29;100.00
27429;BME280;14881;48.092;11.574;2022-09-30T10:12:25;94884.41;;;13.41;100.00
27429;BME280;14881;48.092;11.574;2022-09-30T10:14:59;94891.97;;;13.44;100.00
27429;BME280;14881;48.092;11.574;2022-09-30T10:17:29;94886.13;;;13.71;100.00
27429;BME280;14881;48.092;11.574;2022-09-30T10:20:02;94884.88;;;13.51;100.00
27429;BME280;14881;48.092;11.574;2022-09-30T10:22:34;94894.25;;;13.16;100.00
27429;BME280;14881;48.092;11.574;2022-09-30T10:25:16;94896.44;;;12.97;100.00
27429;BME280;14881;48.092;11.574;2022-09-30T10:27:54;94899.59;;;12.81;100.00
27429;BME280;14881;48.092;11.574;2022-09-30T10:30:30;94888.56;;;12.86;100.00
27429;BME280;14881;48.092;11.574;2022-09-30T10:32:59;94891.28;;;12.78;100.00
27429;BME280;14881;48.092;11.574;2022-09-30T10:35:29;94891.91;;;12.75;100.00
27429;BME280;14881;48.092;11.574;2022-09-30T10:37:58;94891.31;;;13.12;100.00
27429;BME280;14881;48.092;11.574;2022-09-30T10:40:28;94893.56;;;13.19;100.00
27429;BME280;14881;48.092;11.574;2022-09-30T10:42:58;94890.03;;;13.36;100.00
27429;BME280;14881;48.092;11.574;2022-09-30T10:45:29;94892.63;;;13.32;100.00
27429;BME280;14881;48.092;11.574;2022-09-30T10:48:03;94892.28;;;13.34;100.00
27429;BME280;14881;48.092;11.574;2022-09-30T10:50:33;94904.16;;;13.46;100.00
27429;BME280;14881;48.092;11.574;2022-09-30T10:53:04;94893.03;;;13.77;100.00
27429;BME280;14881;48.092;11.574;2022-09-30T10:55:42;94890.63;;;14.22;100.00
27429;BME280;14881;48.092;11.574;2022-09-30T10:58:24;94887.03;;;14.98;100.00
27429;BME280;14881;48.092;11.574;2022-09-30T11:00:55;94898.00;;;15.40;100.00
27429;BME280;14881;48.092;11.574;2022-09-30T11:03:31;94894.19;;;15.74;100.00
27429;BME280;14881;48.092;11.574;2022-09-30T11:06:02;94890.50;;;16.02;100.00
27429;BME280;14881;48.092;11.574;2022-09-30T11:08:35;94888.06;;;16.83;100.00
27429;BME280;14881;48.092;11.574;2022-09-30T11:11:08;94902.94;;;16.94;100.00
27429;BME280;14881;48.092;11.574;2022-09-30T11:13:45;94895.38;;;16.54;100.00
27429;BME280;14881;48.092;11.574;2022-09-30T11:16:22;94906.22;;;15.93;100.00
27429;BME280;14881;48.092;11.574;2022-09-30T11:18:56;94912.38;;;15.57;100.00
27429;BME280;14881;48.092;11.574;2022-09-30T11:21:30;94917.06;;;15.07;100.00
27429;BME280;14881;48.092;11.574;2022-09-30T11:24:10;94925.94;;;14.53;100.00
27429;BME280;14881;48.092;11.574;2022-09-30T11:26:47;94926.41;;;14.00;100.00
27429;BME280;14881;48.092;11.574;2022-09-30T11:29:35;94927.59;;;13.65;100.00
27429;BME280;14881;48.092;11.574;2022-09-30T11:32:12;94942.84;;;13.40;100.00
27429;BME280;14881;48.092;11.574;2022-09-30T11:34:51;94943.31;;;13.24;100.00
27429;BME280;14881;48.092;11.574;2022-09-30T11:37:33;94942.00;;;13.13;100.00
27429;BME280;14881;48.092;11.574;2022-09-30T11:40:28;94918.09;;;13.10;100.00
27429;BME280;14881;48.092;11.574;2022-09-30T11:43:06;94926.78;;;13.21;100.00
27429;BME280;14881;48.092;11.574;2022-09-30T11:45:48;94916.38;;;13.32;100.00
27429;BME280;14881;48.092;11.574;2022-09-30T11:48:35;94922.28;;;13.51;100.00
27429;BME280;14881;48.092;11.574;2022-09-30T11:51:10;94917.50;;;13.48;100.00
27429;BME280;14881;48.092;11.574;2022-09-30T11:53:47;94918.91;;;13.54;100.00
27429;BME280;14881;48.092;11.574;2022-09-30T11:56:33;94914.06;;;13.77;100.00
27429;BME280;14881;48.092;11.574;2022-09-30T11:59:06;94920.63;;;13.93;100.00
27429;BME280;14881;48.092;11.574;2022-09-30T12:01:41;94935.22;;;14.06;100.00
27429;BME280;14881;48.092;11.574;2022-09-30T12:04:13;94925.56;;;14.08;100.00
27429;BME280;14881;48.092;11.574;2022-09-30T12:06:46;94922.63;;;14.22;100.00
27429;BME280;14881;48.092;11.574;2022-09-30T12:09:19;94921.63;;;14.44;100.00
27429;BME280;14881;48.092;11.574;2022-09-30T12:11:54;94919.13;;;14.59;100.00
27429;BME280;14881;48.092;11.574;2022-09-30T12:14:27;94919.28;;;14.63;100.00
27429;BME280;14881;48.092;11.574;2022-09-30T12:16:59;94919.50;;;14.79;100.00
27429;BME280;14881;48.092;11.574;2022-09-30T12:19:34;94916.00;;;14.99;100.00
27429;BME280;14881;48.092;11.574;2022-09-30T12:22:10;94918.84;;;14.82;100.00
27429;BME280;14881;48.092;11.574;2022-09-30T12:24:40;94914.91;;;14.71;100.00
27429;BME280;14881;48.092;11.574;2022-09-30T12:27:14;94914.59;;;14.63;100.00
27429;BME280;14881;48.092;11.574;2022-09-30T12:29:49;94915.31;;;14.52;100.00
27429;BME280;14881;48.092;11.574;2022-09-30T12:35:51;94910.81;;;14.39;100.00
27429;BME280;14881;48.092;11.574;2022-09-30T12:38:36;94923.31;;;14.19;100.00
27429;BME280;14881;48.092;11.574;2022-09-30T12:41:18;94925.72;;;14.12;100.00
27429;BME280;14881;48.092;11.574;2022-09-30T12:47:18;94918.97;;;14.09;100.00
27429;BME280;14881;48.092;11.574;2022-09-30T12:49:49;94922.84;;;14.55;100.00
27429;BME280;14881;48.092;11.574;2022-09-30T12:52:19;94917.34;;;15.14;100.00
27429;BME280;14881;48.092;11.574;2022-09-30T12:54:50;94920.53;;;14.95;100.00
27429;BME280;14881;48.092;11.574;2022-09-30T12:57:23;94919.47;;;15.08;100.00
27429;BME280;14881;48.092;11.574;2022-09-30T12:59:55;94915.34;;;15.02;100.00
27429;BME280;14881;48.092;11.574;2022-09-30T13:02:30;94922.66;;;14.89;100.00
27429;BME280;14881;48.092;11.574;2022-09-30T13:08:21;94922.84;;;15.35;100.00
27429;BME280;14881;48.092;11.574;2022-09-30T13:10:56;94921.03;;;15.39;100.00
27429;BME280;14881;48.092;11.574;2022-09-30T13:13:25;94913.34;;;15.32;100.00
27429;BME280;14881;48.092;11.574;2022-09-30T13:15:56;94921.63;;;15.44;100.00
27429;BME280;14881;48.092;11.574;2022-09-30T13:19:00;94917.16;;;15.40;100.00